Time;durP1;ratioP1;P1;durP2;ratioP2;P2;SDS_P1;SDS_P2;PMS_P1;PMS_P2;Temp;Humidity;BMP_temperature;BMP_pressure;BME280_temperature;BME280_humidity;BME280_pressure;Samples;Min_cycle;Max_cycle;Signal;HPM_P1;HPM_P2
2021/11/14 00:00:03;;;;;;;;;;;20.20;53.40;;;;;;3158549;28;19924;-50
2021/11/14 00:01:35;;;;;;;;;;;20.30;53.20;;;;;;3158314;28;20422;-50
2021/11/14 00:03:06;;;;;;;;;;;20.30;53.00;;;;;;3158926;28;19970;-51
2021/11/14 00:04:37;;;;;;;;;;;20.40;52.90;;;;;;3159144;28;20011;-51
2021/11/14 00:06:09;;;;;;;;;;;20.40;52.70;;;;;;3159049;28;19992;-51
2021/11/14 00:07:41;;;;;;;;;;;20.50;52.70;;;;;;3158612;28;19924;-50
2021/11/14 00:09:12;;;;;;;;;;;20.50;52.60;;;;;;3159514;28;19924;-50
2021/11/14 00:10:44;;;;;;;;;;;20.50;52.40;;;;;;3158365;28;19936;-55
2021/11/14 00:12:16;;;;;;;;;;;20.60;52.40;;;;;;3146520;28;19952;-50
2021/11/14 00:13:50;;;;;;;;;;;20.60;52.40;;;;;;3145583;28;19931;-49
2021/11/14 00:15:21;;;;;;;;;;;20.60;52.30;;;;;;3145773;28;19924;-52
2021/11/14 00:16:53;;;;;;;;;;;20.60;52.20;;;;;;3146398;28;20393;-53
2021/11/14 00:18:24;;;;;;;;;;;20.60;52.10;;;;;;3145852;28;19935;-55
2021/11/14 00:19:56;;;;;;;;;;;20.60;52.10;;;;;;3145926;28;19931;-51
2021/11/14 00:21:28;;;;;;;;;;;20.70;52.10;;;;;;3145537;28;20381;-51
2021/11/14 00:23:00;;;;;;;;;;;20.70;51.80;;;;;;3145893;28;19959;-54
2021/11/14 00:24:31;;;;;;;;;;;20.80;51.80;;;;;;3146422;28;20365;-49
2021/11/14 00:26:03;;;;;;;;;;;20.70;51.70;;;;;;3146827;28;19924;-56
2021/11/14 00:27:34;;;;;;;;;;;20.80;51.80;;;;;;3145515;28;19936;-50
2021/11/14 00:29:07;;;;;;;;;;;20.80;51.80;;;;;;3146197;28;19924;-51
2021/11/14 00:30:38;;;;;;;;;;;20.80;51.60;;;;;;3145076;28;19936;-50
2021/11/14 00:32:09;;;;;;;;;;;20.80;51.60;;;;;;3146559;28;19924;-52
2021/11/14 00:33:43;;;;;;;;;;;20.80;51.70;;;;;;3145768;28;19924;-55
2021/11/14 00:35:15;;;;;;;;;;;20.80;51.60;;;;;;3146348;28;20003;-55
2021/11/14 00:36:47;;;;;;;;;;;20.80;51.60;;;;;;3145682;28;20019;-49
2021/11/14 00:38:19;;;;;;;;;;;20.90;51.50;;;;;;3146026;28;19925;-53
2021/11/14 00:39:51;;;;;;;;;;;20.90;51.60;;;;;;3145281;28;19924;-49
2021/11/14 00:41:23;;;;;;;;;;;20.90;51.60;;;;;;3146106;28;19947;-53
2021/11/14 00:42:53;;;;;;;;;;;20.90;51.50;;;;;;3145694;28;19925;-52
2021/11/14 00:44:26;;;;;;;;;;;20.90;51.30;;;;;;3156664;28;19930;-50
2021/11/14 00:45:58;;;;;;;;;;;20.90;51.30;;;;;;3157891;28;20392;-57
2021/11/14 00:47:29;;;;;;;;;;;20.90;51.30;;;;;;3158666;28;19924;-49
2021/11/14 00:49:01;;;;;;;;;;;20.90;51.30;;;;;;3158568;28;19924;-50
2021/11/14 00:50:32;;;;;;;;;;;20.90;51.40;;;;;;3157966;28;20372;-54
2021/11/14 00:52:04;;;;;;;;;;;20.90;51.30;;;;;;3158102;28;19935;-51
2021/11/14 00:53:36;;;;;;;;;;;20.90;51.20;;;;;;3157970;28;19924;-50
2021/11/14 00:55:08;;;;;;;;;;;20.90;51.30;;;;;;3158875;28;19931;-52
2021/11/14 00:56:39;;;;;;;;;;;20.90;51.20;;;;;;3158620;28;19935;-49
2021/11/14 00:58:11;;;;;;;;;;;20.90;51.20;;;;;;3157987;28;19925;-52
2021/11/14 00:59:44;;;;;;;;;;;20.90;51.30;;;;;;3158095;28;19924;-53
2021/11/14 01:01:15;;;;;;;;;;;20.90;51.30;;;;;;3157690;28;20379;-50
2021/11/14 01:02:47;;;;;;;;;;;20.90;51.30;;;;;;3158251;28;20346;-55
2021/11/14 01:04:19;;;;;;;;;;;20.90;51.30;;;;;;3158522;28;19939;-50
2021/11/14 01:05:50;;;;;;;;;;;20.90;51.20;;;;;;3158525;28;19927;-52
2021/11/14 01:07:21;;;;;;;;;;;20.90;51.20;;;;;;3158483;28;19924;-49
2021/11/14 01:08:52;;;;;;;;;;;20.90;51.20;;;;;;3157969;28;19926;-49
2021/11/14 01:10:24;;;;;;;;;;;21.00;51.10;;;;;;3158092;28;19924;-52
2021/11/14 01:11:56;;;;;;;;;;;20.90;51.10;;;;;;3158232;28;19924;-50
2021/11/14 01:13:27;;;;;;;;;;;21.00;51.20;;;;;;3157862;28;20502;-50
2021/11/14 01:15:00;;;;;;;;;;;20.90;51.10;;;;;;3158798;28;19931;-51
2021/11/14 01:16:32;;;;;;;;;;;21.00;51.10;;;;;;3157567;28;19935;-52
2021/11/14 01:18:03;;;;;;;;;;;21.00;51.00;;;;;;3158018;28;19962;-53
2021/11/14 01:19:35;;;;;;;;;;;21.00;51.10;;;;;;3158592;28;19936;-51
2021/11/14 01:21:07;;;;;;;;;;;21.00;51.20;;;;;;3158127;28;19932;-52
2021/11/14 01:22:39;;;;;;;;;;;21.00;51.10;;;;;;3157536;28;19924;-50
2021/11/14 01:24:11;;;;;;;;;;;21.00;51.10;;;;;;3158184;28;20365;-51
2021/11/14 01:25:43;;;;;;;;;;;21.00;51.10;;;;;;3158846;28;19924;-51
2021/11/14 01:27:15;;;;;;;;;;;21.00;51.20;;;;;;3158127;28;20688;-55
2021/11/14 01:28:46;;;;;;;;;;;21.00;51.10;;;;;;3157653;28;19935;-57
2021/11/14 01:30:21;;;;;;;;;;;21.00;51.00;;;;;;3156976;28;19924;-51
2021/11/14 01:31:52;;;;;;;;;;;21.00;51.00;;;;;;3158574;28;19924;-50
2021/11/14 01:33:24;;;;;;;;;;;21.00;50.90;;;;;;3157546;28;19924;-50
2021/11/14 01:34:56;;;;;;;;;;;21.10;51.00;;;;;;3158437;28;19924;-50
2021/11/14 01:36:31;;;;;;;;;;;21.00;51.00;;;;;;3158417;28;20375;-53
2021/11/14 01:38:02;;;;;;;;;;;21.00;50.90;;;;;;3157598;28;20368;-57
2021/11/14 01:39:34;;;;;;;;;;;21.00;50.90;;;;;;3158159;28;20003;-53
2021/11/14 01:41:06;;;;;;;;;;;21.00;51.00;;;;;;3157846;28;19924;-52
2021/11/14 01:42:38;;;;;;;;;;;21.00;51.00;;;;;;3158123;28;19924;-50
2021/11/14 01:44:10;;;;;;;;;;;21.00;50.90;;;;;;3158141;28;19924;-51
2021/11/14 01:45:43;;;;;;;;;;;21.00;50.90;;;;;;3157717;28;20022;-50
2021/11/14 01:47:15;;;;;;;;;;;21.00;51.00;;;;;;3158192;28;19947;-52
2021/11/14 01:48:47;;;;;;;;;;;21.00;50.90;;;;;;3158080;28;20010;-49
2021/11/14 01:50:18;;;;;;;;;;;21.00;50.90;;;;;;3157711;28;19932;-50
2021/11/14 01:51:50;;;;;;;;;;;21.00;50.90;;;;;;3158149;28;19932;-55
2021/11/14 01:53:21;;;;;;;;;;;21.00;51.00;;;;;;3157650;28;19924;-49
2021/11/14 01:54:53;;;;;;;;;;;21.00;51.00;;;;;;3158398;28;19932;-51
2021/11/14 01:56:25;;;;;;;;;;;21.00;51.00;;;;;;3158161;28;20452;-53
2021/11/14 01:57:56;;;;;;;;;;;21.00;51.00;;;;;;3157532;28;19962;-57
2021/11/14 01:59:30;;;;;;;;;;;21.00;51.00;;;;;;3158115;28;19924;-53
2021/11/14 02:01:05;;;;;;;;;;;21.00;51.00;;;;;;3157265;28;19924;-49
2021/11/14 02:02:37;;;;;;;;;;;21.00;51.00;;;;;;3157602;28;19936;-51
2021/11/14 02:04:08;;;;;;;;;;;21.00;51.00;;;;;;3158136;28;19932;-52
2021/11/14 02:05:40;;;;;;;;;;;21.00;51.00;;;;;;3158246;28;19928;-50
2021/11/14 02:07:12;;;;;;;;;;;21.00;50.90;;;;;;3157982;28;19931;-50
2021/11/14 02:08:44;;;;;;;;;;;21.10;50.90;;;;;;3157709;28;20312;-50
2021/11/14 02:10:15;;;;;;;;;;;21.00;50.90;;;;;;3157187;28;19928;-51
2021/11/14 02:11:47;;;;;;;;;;;21.00;50.90;;;;;;3158325;28;20594;-50
2021/11/14 02:13:18;;;;;;;;;;;21.10;51.00;;;;;;3157413;28;19924;-50
2021/11/14 02:14:49;;;;;;;;;;;21.00;50.90;;;;;;3158025;28;19927;-55
2021/11/14 02:16:23;;;;;;;;;;;21.10;50.90;;;;;;3157240;28;19935;-49
2021/11/14 02:17:53;;;;;;;;;;;21.10;50.80;;;;;;3157769;28;19964;-50
2021/11/14 02:19:25;;;;;;;;;;;21.10;50.90;;;;;;3158163;28;19928;-50
2021/11/14 02:20:58;;;;;;;;;;;21.10;50.90;;;;;;3157255;28;19924;-50
2021/11/14 02:22:29;;;;;;;;;;;21.00;51.00;;;;;;3157784;28;19924;-50
2021/11/14 02:24:01;;;;;;;;;;;21.00;51.00;;;;;;3157556;28;20403;-49
2021/11/14 02:25:33;;;;;;;;;;;21.00;51.00;;;;;;3158185;28;19924;-49
2021/11/14 02:27:05;;;;;;;;;;;21.00;50.90;;;;;;3157817;28;19932;-53
2021/11/14 02:28:36;;;;;;;;;;;21.10;50.90;;;;;;3157284;28;19931;-54
2021/11/14 02:30:09;;;;;;;;;;;21.10;50.90;;;;;;3157015;28;20050;-51
2021/11/14 02:31:40;;;;;;;;;;;21.10;50.90;;;;;;3158050;28;19954;-58
2021/11/14 02:33:12;;;;;;;;;;;21.00;50.90;;;;;;3157415;28;19977;-49
2021/11/14 02:34:43;;;;;;;;;;;21.00;50.90;;;;;;3158308;28;20262;-53
2021/11/14 02:36:16;;;;;;;;;;;21.00;50.90;;;;;;3158082;28;19935;-52
2021/11/14 02:37:48;;;;;;;;;;;21.00;50.90;;;;;;3156990;28;20447;-49
2021/11/14 02:39:19;;;;;;;;;;;21.00;50.90;;;;;;3157774;28;19940;-50
2021/11/14 02:40:51;;;;;;;;;;;21.00;51.00;;;;;;3157680;28;19928;-57
2021/11/14 02:42:22;;;;;;;;;;;21.00;50.90;;;;;;3157994;28;19924;-49
2021/11/14 02:43:54;;;;;;;;;;;21.00;51.00;;;;;;3157036;28;19993;-55
2021/11/14 02:45:25;;;;;;;;;;;21.00;51.10;;;;;;3159199;28;19955;-57
2021/11/14 02:46:56;;;;;;;;;;;21.00;51.00;;;;;;3159947;28;19927;-50
2021/11/14 02:48:28;;;;;;;;;;;21.00;51.00;;;;;;3159630;28;19924;-49
2021/11/14 02:49:59;;;;;;;;;;;21.00;50.90;;;;;;3159464;28;20008;-53
2021/11/14 02:51:32;;;;;;;;;;;21.00;50.90;;;;;;3159644;28;19924;-53
2021/11/14 02:53:03;;;;;;;;;;;21.00;51.00;;;;;;3159630;28;19977;-50
2021/11/14 02:54:35;;;;;;;;;;;21.00;51.00;;;;;;3159960;28;19969;-50
2021/11/14 02:56:06;;;;;;;;;;;21.00;50.90;;;;;;3159858;28;19924;-54
2021/11/14 02:57:38;;;;;;;;;;;21.00;50.90;;;;;;3159451;28;19932;-56
2021/11/14 02:59:10;;;;;;;;;;;21.00;50.90;;;;;;3159928;28;20425;-51
2021/11/14 03:00:42;;;;;;;;;;;21.00;51.00;;;;;;3158356;28;19952;-49
2021/11/14 03:02:14;;;;;;;;;;;21.00;51.00;;;;;;3160033;28;19924;-49
2021/11/14 03:03:46;;;;;;;;;;;21.10;50.90;;;;;;3158557;22;19935;-51
2021/11/14 03:05:18;;;;;;;;;;;21.00;50.90;;;;;;3130388;28;20332;-53
2021/11/14 03:06:52;;;;;;;;;;;21.00;50.90;;;;;;3134792;28;19925;-51
2021/11/14 03:08:23;;;;;;;;;;;21.10;50.90;;;;;;3139604;28;19935;-56
2021/11/14 03:09:55;;;;;;;;;;;21.00;50.90;;;;;;3131890;28;19925;-51
2021/11/14 03:11:27;;;;;;;;;;;21.00;50.90;;;;;;3122554;28;19925;-51
2021/11/14 03:12:58;;;;;;;;;;;21.10;50.90;;;;;;3130536;28;19975;-52
2021/11/14 03:14:29;;;;;;;;;;;21.10;50.90;;;;;;3134864;28;19920;-52
2021/11/14 03:16:01;;;;;;;;;;;21.10;50.90;;;;;;3133981;28;20245;-56
2021/11/14 03:17:32;;;;;;;;;;;21.10;50.70;;;;;;3134592;28;19932;-51
2021/11/14 03:19:03;;;;;;;;;;;21.10;50.70;;;;;;3134720;28;20384;-55
2021/11/14 03:20:35;;;;;;;;;;;21.10;50.80;;;;;;3134158;28;20429;-56
2021/11/14 03:22:10;;;;;;;;;;;21.10;50.90;;;;;;3134566;28;19925;-50
2021/11/14 03:23:41;;;;;;;;;;;21.00;50.80;;;;;;3134459;28;19968;-58
2021/11/14 03:25:12;;;;;;;;;;;21.10;50.90;;;;;;3134906;28;19925;-52
2021/11/14 03:26:44;;;;;;;;;;;21.00;50.90;;;;;;3134682;28;20289;-58
2021/11/14 03:28:15;;;;;;;;;;;21.00;51.00;;;;;;3133976;28;19947;-50
2021/11/14 03:29:47;;;;;;;;;;;21.00;50.90;;;;;;3134441;28;19932;-55
2021/11/14 03:31:18;;;;;;;;;;;21.00;50.80;;;;;;3133974;28;19924;-55
2021/11/14 03:32:50;;;;;;;;;;;21.10;50.90;;;;;;3124126;28;19931;-52
2021/11/14 03:34:21;;;;;;;;;;;21.00;50.90;;;;;;3133981;28;20316;-55
2021/11/14 03:35:54;;;;;;;;;;;21.00;50.90;;;;;;3134449;28;20411;-52
2021/11/14 03:37:27;;;;;;;;;;;21.00;50.90;;;;;;3134282;28;19924;-54
2021/11/14 03:38:59;;;;;;;;;;;21.00;50.90;;;;;;3121760;28;19929;-55
2021/11/14 03:40:31;;;;;;;;;;;21.10;50.90;;;;;;3121687;28;19925;-56
2021/11/14 03:42:02;;;;;;;;;;;21.00;50.90;;;;;;3122480;28;20417;-52
2021/11/14 03:43:34;;;;;;;;;;;21.00;51.60;;;;;;3124460;28;19924;-53
2021/11/14 03:45:05;;;;;;;;;;;21.00;51.00;;;;;;3133800;28;19925;-51
2021/11/14 03:46:37;;;;;;;;;;;21.00;51.00;;;;;;3134604;28;19994;-54
2021/11/14 03:48:08;;;;;;;;;;;21.00;51.00;;;;;;3134274;28;20605;-52
2021/11/14 03:49:40;;;;;;;;;;;21.00;51.00;;;;;;3133818;28;19925;-57
2021/11/14 03:51:11;;;;;;;;;;;21.00;51.00;;;;;;3134428;28;19936;-55
2021/11/14 03:52:44;;;;;;;;;;;21.00;50.90;;;;;;3135853;28;19925;-56
2021/11/14 03:54:16;;;;;;;;;;;21.00;50.80;;;;;;3146692;28;20296;-55
2021/11/14 03:55:48;;;;;;;;;;;21.10;50.80;;;;;;3146791;28;19929;-54
2021/11/14 03:57:19;;;;;;;;;;;21.10;50.90;;;;;;3146765;28;20607;-56
2021/11/14 03:58:51;;;;;;;;;;;21.00;50.90;;;;;;3146355;28;19938;-54
2021/11/14 04:00:22;;;;;;;;;;;21.00;50.90;;;;;;3145153;28;19928;-54
2021/11/14 04:01:54;;;;;;;;;;;21.00;50.90;;;;;;3146654;28;19927;-56
2021/11/14 04:03:26;;;;;;;;;;;21.00;50.90;;;;;;3146105;28;19925;-52
2021/11/14 04:04:57;;;;;;;;;;;21.00;50.80;;;;;;3136942;28;19929;-53
2021/11/14 04:06:29;;;;;;;;;;;21.00;50.80;;;;;;3134286;28;19925;-55
2021/11/14 04:08:02;;;;;;;;;;;21.00;50.80;;;;;;3133476;28;19925;-54
2021/11/14 04:09:33;;;;;;;;;;;21.10;50.90;;;;;;3134232;28;19931;-55
2021/11/14 04:11:05;;;;;;;;;;;21.00;50.90;;;;;;3133770;28;19925;-57
2021/11/14 04:12:37;;;;;;;;;;;21.00;50.90;;;;;;3133742;28;20286;-52
2021/11/14 04:14:09;;;;;;;;;;;21.00;50.90;;;;;;3133969;28;20433;-53
2021/11/14 04:15:40;;;;;;;;;;;21.00;50.90;;;;;;3133764;28;19932;-53
2021/11/14 04:17:12;;;;;;;;;;;21.00;50.90;;;;;;3133927;28;20373;-55
2021/11/14 04:18:43;;;;;;;;;;;21.00;50.90;;;;;;3133523;28;19932;-57
2021/11/14 04:20:15;;;;;;;;;;;21.00;50.90;;;;;;3133443;28;19936;-58
2021/11/14 04:21:46;;;;;;;;;;;21.00;51.30;;;;;;3134130;28;19931;-54
2021/11/14 04:23:19;;;;;;;;;;;21.00;50.90;;;;;;3133524;28;19929;-55
2021/11/14 04:24:50;;;;;;;;;;;21.00;50.90;;;;;;3134127;28;19986;-52
2021/11/14 04:26:21;;;;;;;;;;;21.00;50.90;;;;;;3134218;28;19979;-54
2021/11/14 04:27:53;;;;;;;;;;;21.00;51.00;;;;;;3133491;28;19928;-55
2021/11/14 04:29:24;;;;;;;;;;;21.00;51.00;;;;;;3133995;28;19925;-50
2021/11/14 04:30:56;;;;;;;;;;;21.00;51.00;;;;;;3132687;28;19948;-53
2021/11/14 04:32:28;;;;;;;;;;;21.00;51.00;;;;;;3133987;28;19936;-56
2021/11/14 04:33:59;;;;;;;;;;;21.00;51.00;;;;;;3133457;28;19925;-52
2021/11/14 04:35:30;;;;;;;;;;;21.00;51.00;;;;;;3134061;28;20566;-57
2021/11/14 04:37:01;;;;;;;;;;;21.00;51.00;;;;;;3133860;28;19924;-50
2021/11/14 04:38:35;;;;;;;;;;;21.00;51.00;;;;;;3133801;28;19943;-51
2021/11/14 04:40:08;;;;;;;;;;;21.00;51.00;;;;;;3133363;28;20441;-53
2021/11/14 04:41:39;;;;;;;;;;;21.00;50.80;;;;;;3133941;28;19947;-52
2021/11/14 04:43:11;;;;;;;;;;;21.00;50.90;;;;;;3133118;28;19924;-58
2021/11/14 04:44:43;;;;;;;;;;;21.00;50.90;;;;;;3134204;28;19924;-53
2021/11/14 04:46:14;;;;;;;;;;;21.00;50.80;;;;;;3132831;28;19925;-53
2021/11/14 04:47:46;;;;;;;;;;;21.10;50.90;;;;;;3133364;28;20281;-51
2021/11/14 04:49:20;;;;;;;;;;;21.10;50.80;;;;;;3133761;28;19925;-51
2021/11/14 04:50:52;;;;;;;;;;;21.10;50.70;;;;;;3133326;28;20388;-53
2021/11/14 04:52:23;;;;;;;;;;;21.10;50.80;;;;;;3128918;28;20332;-55
2021/11/14 04:53:56;;;;;;;;;;;21.10;50.70;;;;;;3132887;28;19976;-57
2021/11/14 04:55:28;;;;;;;;;;;21.10;50.70;;;;;;3133742;28;20143;-51
2021/11/14 04:56:59;;;;;;;;;;;21.20;50.70;;;;;;3133805;28;19924;-56
2021/11/14 04:58:31;;;;;;;;;;;21.20;50.60;;;;;;3133064;28;19925;-52
2021/11/14 05:00:02;;;;;;;;;;;21.20;50.40;;;;;;3132733;28;19932;-50
2021/11/14 05:01:34;;;;;;;;;;;21.30;50.30;;;;;;3132691;28;20365;-58
2021/11/14 05:03:05;;;;;;;;;;;21.30;50.10;;;;;;3133356;28;20669;-51
2021/11/14 05:04:37;;;;;;;;;;;21.40;50.00;;;;;;3133367;28;19928;-53
2021/11/14 05:06:09;;;;;;;;;;;21.50;49.90;;;;;;3133455;28;20380;-56
2021/11/14 05:07:41;;;;;;;;;;;21.60;49.80;;;;;;3132894;28;20020;-50
2021/11/14 05:09:14;;;;;;;;;;;21.60;49.60;;;;;;3133751;28;19932;-56
2021/11/14 05:10:49;;;;;;;;;;;21.60;49.50;;;;;;3133088;28;19925;-50
2021/11/14 05:12:20;;;;;;;;;;;21.70;49.50;;;;;;3133416;28;20020;-54
2021/11/14 05:13:52;;;;;;;;;;;21.70;49.40;;;;;;3132916;28;20377;-54
2021/11/14 05:15:22;;;;;;;;;;;21.80;49.20;;;;;;3132882;28;19925;-53
2021/11/14 05:16:54;;;;;;;;;;;21.90;49.00;;;;;;3133395;28;19921;-53
2021/11/14 05:18:25;;;;;;;;;;;21.90;48.90;;;;;;3132947;28;19929;-52
2021/11/14 05:19:57;;;;;;;;;;;22.00;48.90;;;;;;3133117;28;20381;-54
2021/11/14 05:21:28;;;;;;;;;;;22.00;48.70;;;;;;3133686;28;20189;-56
2021/11/14 05:23:00;;;;;;;;;;;22.10;48.60;;;;;;3133000;28;19925;-52
2021/11/14 05:24:33;;;;;;;;;;;22.10;48.40;;;;;;3133470;28;19925;-54
2021/11/14 05:26:04;;;;;;;;;;;22.20;48.40;;;;;;3133729;28;20296;-52
2021/11/14 05:27:36;;;;;;;;;;;22.20;48.40;;;;;;3132773;28;19940;-53
2021/11/14 05:29:07;;;;;;;;;;;22.20;48.20;;;;;;3132976;28;19936;-54
2021/11/14 05:30:39;;;;;;;;;;;22.20;48.10;;;;;;3131993;28;20401;-52
2021/11/14 05:32:11;;;;;;;;;;;22.30;48.10;;;;;;3133106;28;20023;-54
2021/11/14 05:33:42;;;;;;;;;;;22.30;48.10;;;;;;3132778;28;20377;-56
2021/11/14 05:35:15;;;;;;;;;;;22.30;48.00;;;;;;3133531;28;19925;-53
2021/11/14 05:36:46;;;;;;;;;;;22.30;48.00;;;;;;3133239;28;19979;-51
2021/11/14 05:38:19;;;;;;;;;;;22.30;48.00;;;;;;3132648;28;20297;-55
2021/11/14 05:39:52;;;;;;;;;;;22.30;47.90;;;;;;3132860;28;20343;-55
2021/11/14 05:41:23;;;;;;;;;;;22.30;47.90;;;;;;3133602;28;20331;-53
2021/11/14 05:42:55;;;;;;;;;;;22.30;48.00;;;;;;3132928;28;19925;-52
2021/11/14 05:44:26;;;;;;;;;;;22.30;47.90;;;;;;3122766;28;19925;-53
2021/11/14 05:45:58;;;;;;;;;;;22.30;48.10;;;;;;3120296;28;20378;-58
2021/11/14 05:47:29;;;;;;;;;;;22.20;48.10;;;;;;3120866;28;19936;-54
2021/11/14 05:49:06;;;;;;;;;;;22.20;48.20;;;;;;3120653;28;19925;-52
2021/11/14 05:50:38;;;;;;;;;;;22.20;48.40;;;;;;3129547;28;19925;-53
2021/11/14 05:52:09;;;;;;;;;;;22.10;48.50;;;;;;3132738;28;19929;-52
2021/11/14 05:53:41;;;;;;;;;;;22.10;48.50;;;;;;3139053;28;20377;-56
2021/11/14 05:55:14;;;;;;;;;;;22.10;48.70;;;;;;3145679;28;20012;-53
2021/11/14 05:56:45;;;;;;;;;;;22.00;48.70;;;;;;3145626;28;19936;-51
2021/11/14 05:58:19;;;;;;;;;;;22.00;48.90;;;;;;3144922;28;19928;-57
2021/11/14 05:59:54;;;;;;;;;;;22.00;49.00;;;;;;3145240;28;19983;-55
2021/11/14 06:01:29;;;;;;;;;;;21.90;48.90;;;;;;3144870;28;19960;-54
2021/11/14 06:03:06;;;;;;;;;;;21.90;49.10;;;;;;3145249;28;19924;-58
2021/11/14 06:04:41;;;;;;;;;;;21.90;49.20;;;;;;3138906;28;19929;-55
2021/11/14 06:06:12;;;;;;;;;;;21.90;49.20;;;;;;3133315;28;19928;-52
2021/11/14 06:07:44;;;;;;;;;;;21.90;49.20;;;;;;3132920;28;19932;-53
2021/11/14 06:09:15;;;;;;;;;;;21.90;49.20;;;;;;3133296;28;19944;-54
2021/11/14 06:10:48;;;;;;;;;;;21.90;49.20;;;;;;3132627;28;20297;-52
2021/11/14 06:12:20;;;;;;;;;;;21.90;49.20;;;;;;3133114;28;19936;-53
2021/11/14 06:13:52;;;;;;;;;;;21.90;49.10;;;;;;3132441;28;20001;-52
2021/11/14 06:15:23;;;;;;;;;;;21.90;49.10;;;;;;3132382;28;20008;-50
2021/11/14 06:16:55;;;;;;;;;;;21.90;49.10;;;;;;3132951;28;19936;-52
2021/11/14 06:18:27;;;;;;;;;;;21.90;49.10;;;;;;3132907;28;19925;-56
2021/11/14 06:19:57;;;;;;;;;;;21.90;49.20;;;;;;3133698;28;20285;-55
2021/11/14 06:21:29;;;;;;;;;;;21.90;49.10;;;;;;3135275;28;19921;-55
2021/11/14 06:23:00;;;;;;;;;;;22.00;49.00;;;;;;3135090;28;19931;-58
2021/11/14 06:24:32;;;;;;;;;;;22.00;48.90;;;;;;3135550;28;19925;-52
2021/11/14 06:26:05;;;;;;;;;;;22.00;48.90;;;;;;3135484;28;20428;-57
2021/11/14 06:27:36;;;;;;;;;;;22.00;48.90;;;;;;3135132;28;19971;-60
2021/11/14 06:29:08;;;;;;;;;;;22.00;48.80;;;;;;3135683;28;20425;-55
2021/11/14 06:30:39;;;;;;;;;;;22.10;48.90;;;;;;3134340;28;19954;-51
2021/11/14 06:32:11;;;;;;;;;;;22.00;48.90;;;;;;3135108;28;19925;-56
2021/11/14 06:33:43;;;;;;;;;;;22.10;48.90;;;;;;3134885;28;20585;-56
2021/11/14 06:35:14;;;;;;;;;;;22.10;48.80;;;;;;3135609;28;20361;-53
2021/11/14 06:36:46;;;;;;;;;;;22.10;48.70;;;;;;3135281;28;19924;-54
2021/11/14 06:38:17;;;;;;;;;;;22.10;48.60;;;;;;3134863;28;19951;-54
2021/11/14 06:39:48;;;;;;;;;;;22.20;48.60;;;;;;3134671;28;19925;-54
2021/11/14 06:41:21;;;;;;;;;;;22.10;48.60;;;;;;3135696;28;19921;-57
2021/11/14 06:42:52;;;;;;;;;;;22.10;48.60;;;;;;3134541;28;20019;-54
2021/11/14 06:44:24;;;;;;;;;;;22.10;48.70;;;;;;3135100;28;19931;-54
2021/11/14 06:45:55;;;;;;;;;;;22.10;48.70;;;;;;3134477;28;20412;-54
2021/11/14 06:47:27;;;;;;;;;;;22.10;48.70;;;;;;3135371;28;19932;-52
2021/11/14 06:48:58;;;;;;;;;;;22.10;48.80;;;;;;3134600;28;19932;-52
2021/11/14 06:50:30;;;;;;;;;;;22.10;48.90;;;;;;3134492;28;19925;-57
2021/11/14 06:52:01;;;;;;;;;;;22.10;48.80;;;;;;3135267;28;19925;-57
2021/11/14 06:53:33;;;;;;;;;;;22.10;48.90;;;;;;3134376;28;20377;-53
2021/11/14 06:55:05;;;;;;;;;;;22.10;48.90;;;;;;3135293;28;19952;-57
2021/11/14 06:56:38;;;;;;;;;;;22.10;48.70;;;;;;3135120;28;20384;-57
2021/11/14 06:58:09;;;;;;;;;;;22.10;48.70;;;;;;3134565;28;19924;-54
2021/11/14 06:59:41;;;;;;;;;;;22.10;48.70;;;;;;3134415;28;19929;-58
2021/11/14 07:01:12;;;;;;;;;;;22.20;48.70;;;;;;3134202;28;19925;-58
2021/11/14 07:02:44;;;;;;;;;;;22.10;48.80;;;;;;3134571;28;19925;-55
2021/11/14 07:04:15;;;;;;;;;;;22.10;48.80;;;;;;3135103;28;20361;-55
2021/11/14 07:05:47;;;;;;;;;;;22.10;48.80;;;;;;3135298;28;19955;-57
2021/11/14 07:07:18;;;;;;;;;;;22.10;48.90;;;;;;3134866;28;19925;-58
2021/11/14 07:08:50;;;;;;;;;;;22.10;48.90;;;;;;3134637;28;19994;-51
2021/11/14 07:10:24;;;;;;;;;;;22.10;49.00;;;;;;3134237;28;19925;-57
2021/11/14 07:11:57;;;;;;;;;;;22.10;49.60;;;;;;3134902;28;19925;-52
2021/11/14 07:13:28;;;;;;;;;;;22.10;49.10;;;;;;3134108;28;20296;-55
2021/11/14 07:15:00;;;;;;;;;;;22.10;49.10;;;;;;3134805;28;19924;-56
2021/11/14 07:16:32;;;;;;;;;;;22.00;49.00;;;;;;3134020;28;19928;-54
2021/11/14 07:18:03;;;;;;;;;;;22.00;49.20;;;;;;3134332;28;19925;-52
2021/11/14 07:19:35;;;;;;;;;;;22.00;49.30;;;;;;3134866;28;20284;-53
2021/11/14 07:21:06;;;;;;;;;;;22.00;49.30;;;;;;3134866;28;19931;-52
2021/11/14 07:22:38;;;;;;;;;;;22.00;49.30;;;;;;3133856;28;19929;-58
2021/11/14 07:24:09;;;;;;;;;;;22.00;49.30;;;;;;3134682;28;19925;-52
2021/11/14 07:25:41;;;;;;;;;;;22.00;49.80;;;;;;3134939;28;20428;-57
2021/11/14 07:27:14;;;;;;;;;;;22.00;49.20;;;;;;3135002;28;19924;-53
2021/11/14 07:28:45;;;;;;;;;;;22.00;49.20;;;;;;3134043;28;19931;-55
2021/11/14 07:30:17;;;;;;;;;;;22.00;49.30;;;;;;3132435;28;20407;-57
2021/11/14 07:31:48;;;;;;;;;;;22.00;49.20;;;;;;3134888;28;20396;-56
2021/11/14 07:33:20;;;;;;;;;;;22.00;49.30;;;;;;3134275;28;19925;-54
2021/11/14 07:34:51;;;;;;;;;;;22.10;49.20;;;;;;3134810;28;19935;-53
2021/11/14 07:36:23;;;;;;;;;;;22.10;49.10;;;;;;3134212;28;19925;-56
2021/11/14 07:37:54;;;;;;;;;;;22.10;49.10;;;;;;3134066;28;19940;-54
2021/11/14 07:39:26;;;;;;;;;;;22.10;49.30;;;;;;3134787;28;19925;-53
2021/11/14 07:40:57;;;;;;;;;;;22.10;49.30;;;;;;3134168;28;19931;-56
2021/11/14 07:42:30;;;;;;;;;;;22.10;49.30;;;;;;3134442;28;19929;-57
2021/11/14 07:44:02;;;;;;;;;;;22.10;49.20;;;;;;3126713;28;19952;-55
2021/11/14 07:45:34;;;;;;;;;;;22.10;49.30;;;;;;3121615;28;19925;-54
2021/11/14 07:47:05;;;;;;;;;;;22.10;49.30;;;;;;3122217;28;19925;-55
2021/11/14 07:48:37;;;;;;;;;;;22.10;49.30;;;;;;3121750;28;19933;-56
2021/11/14 07:50:09;;;;;;;;;;;22.10;49.20;;;;;;3126890;28;19932;-52
2021/11/14 07:51:41;;;;;;;;;;;22.10;49.20;;;;;;3134159;28;19925;-51
2021/11/14 07:53:13;;;;;;;;;;;22.10;49.20;;;;;;3133693;28;19944;-52
2021/11/14 07:54:44;;;;;;;;;;;22.10;49.30;;;;;;3141136;28;20575;-52
2021/11/14 07:56:16;;;;;;;;;;;22.10;49.20;;;;;;3147115;28;19925;-58
2021/11/14 07:57:49;;;;;;;;;;;22.10;49.30;;;;;;3146065;28;19928;-54
2021/11/14 07:59:21;;;;;;;;;;;22.10;49.30;;;;;;3146523;28;19925;-53
2021/11/14 08:00:52;;;;;;;;;;;22.10;49.30;;;;;;3145567;28;19935;-55
2021/11/14 08:02:24;;;;;;;;;;;22.10;49.30;;;;;;3146711;28;19925;-55
2021/11/14 08:03:55;;;;;;;;;;;22.10;49.50;;;;;;3144891;28;20292;-51
2021/11/14 08:05:28;;;;;;;;;;;22.10;49.40;;;;;;3134453;28;19932;-56
2021/11/14 08:07:00;;;;;;;;;;;22.10;49.40;;;;;;3134276;28;19987;-56
2021/11/14 08:08:31;;;;;;;;;;;22.10;49.40;;;;;;3133794;28;19925;-52
2021/11/14 08:10:03;;;;;;;;;;;22.10;49.30;;;;;;3133588;28;19929;-54
2021/11/14 08:11:34;;;;;;;;;;;22.10;49.30;;;;;;3134056;28;19928;-55
2021/11/14 08:13:07;;;;;;;;;;;22.20;49.40;;;;;;3133744;28;19929;-51
2021/11/14 08:14:39;;;;;;;;;;;22.20;49.20;;;;;;3134087;28;19932;-57
2021/11/14 08:16:11;;;;;;;;;;;22.20;49.20;;;;;;3133473;28;20561;-54
2021/11/14 08:17:42;;;;;;;;;;;22.20;49.20;;;;;;3133721;28;19925;-55
2021/11/14 08:19:14;;;;;;;;;;;22.20;49.30;;;;;;3134290;28;19955;-56
2021/11/14 08:20:45;;;;;;;;;;;22.20;49.20;;;;;;3133493;28;20374;-58
2021/11/14 08:22:17;;;;;;;;;;;22.20;49.20;;;;;;3133533;28;19925;-54
2021/11/14 08:23:48;;;;;;;;;;;22.20;49.40;;;;;;3133697;28;20294;-53
2021/11/14 08:25:20;;;;;;;;;;;22.20;49.30;;;;;;3134238;28;19924;-54
2021/11/14 08:26:51;;;;;;;;;;;22.20;49.40;;;;;;3133960;28;20003;-58
2021/11/14 08:28:24;;;;;;;;;;;22.20;49.30;;;;;;3133300;28;20439;-53
2021/11/14 08:29:56;;;;;;;;;;;22.20;49.40;;;;;;3133576;28;19925;-58
2021/11/14 08:31:27;;;;;;;;;;;22.20;49.40;;;;;;3133301;28;19928;-55
2021/11/14 08:32:59;;;;;;;;;;;22.20;49.40;;;;;;3133641;28;19932;-56
2021/11/14 08:34:30;;;;;;;;;;;22.20;49.40;;;;;;3133720;28;19936;-55
2021/11/14 08:36:02;;;;;;;;;;;22.20;49.50;;;;;;3133880;28;20382;-54
2021/11/14 08:37:33;;;;;;;;;;;22.20;49.40;;;;;;3133044;28;19936;-58
2021/11/14 08:39:05;;;;;;;;;;;22.20;49.40;;;;;;3133963;28;19924;-52
2021/11/14 08:40:37;;;;;;;;;;;22.20;49.40;;;;;;3133453;28;19940;-56
2021/11/14 08:42:09;;;;;;;;;;;22.20;49.50;;;;;;3133457;28;19931;-57
2021/11/14 08:43:42;;;;;;;;;;;22.10;49.50;;;;;;3128729;28;20439;-56
2021/11/14 08:45:13;;;;;;;;;;;22.20;49.50;;;;;;3120889;28;19929;-54
2021/11/14 08:46:45;;;;;;;;;;;22.20;49.50;;;;;;3121569;28;20516;-59
2021/11/14 08:48:16;;;;;;;;;;;22.20;49.50;;;;;;3121241;28;19925;-55
2021/11/14 08:49:48;;;;;;;;;;;22.20;49.60;;;;;;3123121;28;19932;-52
2021/11/14 08:51:19;;;;;;;;;;;22.20;49.60;;;;;;3133756;28;19925;-55
2021/11/14 08:52:51;;;;;;;;;;;22.20;49.60;;;;;;3130945;28;19925;-57